Time;durP1;ratioP1;P1;durP2;ratioP2;P2;SDS_P1;SDS_P2;PMS_P1;PMS_P2;Temp;Humidity;BMP_temperature;BMP_pressure;BME280_temperature;BME280_humidity;BME280_pressure;Samples;Min_cycle;Max_cycle;Signal;HPM_P1;HPM_P2
2022/05/03 00:01:26;;;;;;;3.93;3.13;;;;;;;;;;5005304;28;20218;-70
2022/05/03 00:03:58;;;;;;;3.67;2.67;;;;;;;;;;5009031;28;20221;-70
2022/05/03 00:06:33;;;;;;;3.20;2.90;;;;;;;;;;5008637;28;20182;-70
2022/05/03 00:09:05;;;;;;;2.63;2.43;;;;;;;;;;5006712;28;20194;-70
2022/05/03 00:11:36;;;;;;;4.40;2.77;;;;;;;;;;5000020;28;20206;-70
2022/05/03 00:14:37;;;;;;;3.00;2.80;;;;;;;;;;5006462;28;20189;-70
2022/05/03 00:17:04;;;;;;;3.40;2.90;;;;;;;;;;4928718;29;20532;-70
2022/05/03 00:19:29;;;;;;;3.53;3.03;;;;;;;;;;4994429;28;20226;-70
2022/05/03 00:21:55;;;;;;;4.63;2.93;;;;;;;;;;5002676;28;20233;-69
2022/05/03 00:24:20;;;;;;;3.80;3.00;;;;;;;;;;5001900;28;20192;-69
2022/05/03 00:26:46;;;;;;;3.47;3.03;;;;;;;;;;5011259;28;20191;-70
2022/05/03 00:29:12;;;;;;;3.60;2.97;;;;;;;;;;5009024;28;20658;-70
2022/05/03 00:31:37;;;;;;;3.67;3.17;;;;;;;;;;5012553;28;20241;-69
2022/05/03 00:34:03;;;;;;;3.83;3.40;;;;;;;;;;5008585;28;20262;-69
2022/05/03 00:36:28;;;;;;;4.17;3.50;;;;;;;;;;5004508;28;20266;-70
2022/05/03 00:38:53;;;;;;;4.67;3.43;;;;;;;;;;5010569;28;20171;-70
2022/05/03 00:41:39;;;;;;;13.67;4.33;;;;;;;;;;5005130;28;20590;-68
2022/05/03 00:47:13;;;;;;;4.70;3.67;;;;;;;;;;4996067;28;20181;-68
2022/05/03 00:49:41;;;;;;;6.93;4.70;;;;;;;;;;5019196;28;20199;-70
2022/05/03 00:52:10;;;;;;;6.37;4.87;;;;;;;;;;5011020;28;20230;-70
2022/05/03 00:54:37;;;;;;;4.87;3.80;;;;;;;;;;5009338;28;20187;-70
2022/05/03 00:57:18;;;;;;;5.23;4.57;;;;;;;;;;5011297;28;20182;-70
2022/05/03 00:59:43;;;;;;;5.43;4.93;;;;;;;;;;5008473;28;20179;-70
2022/05/03 01:02:08;;;;;;;6.78;5.15;;;;;;;;;;5012247;28;20223;-70
2022/05/03 01:04:52;;;;;;;5.73;4.87;;;;;;;;;;5010613;28;20183;-70
2022/05/03 01:07:36;;;;;;;7.20;4.37;;;;;;;;;;5011674;28;20190;-70
2022/05/03 01:10:05;;;;;;;6.90;5.57;;;;;;;;;;5009661;28;20547;-70
2022/05/03 01:12:49;;;;;;;5.87;5.03;;;;;;;;;;5010714;28;20190;-69
2022/05/03 01:15:19;;;;;;;6.60;5.50;;;;;;;;;;5009913;28;20210;-69
2022/05/03 01:18:20;;;;;;;6.17;4.83;;;;;;;;;;5010365;28;20183;-69
2022/05/03 01:20:55;;;;;;;5.73;5.13;;;;;;;;;;4950731;28;20197;-70
2022/05/03 01:23:21;;;;;;;8.50;5.33;;;;;;;;;;5000259;28;20182;-72
2022/05/03 01:25:52;;;;;;;9.20;6.13;;;;;;;;;;5011295;28;20641;-71
2022/05/03 01:28:17;;;;;;;6.53;5.47;;;;;;;;;;5009230;28;20190;-68
2022/05/03 01:30:49;;;;;;;8.17;5.70;;;;;;;;;;5012067;28;20187;-70
2022/05/03 01:33:17;;;;;;;6.47;5.60;;;;;;;;;;5010704;28;20175;-70
2022/05/03 01:35:45;;;;;;;7.97;7.17;;;;;;;;;;5012380;28;20175;-70
2022/05/03 01:38:36;;;;;;;9.33;7.63;;;;;;;;;;5011535;28;20677;-70
2022/05/03 01:41:16;;;;;;;9.77;7.83;;;;;;;;;;5007408;28;20210;-71
2022/05/03 01:43:55;;;;;;;10.67;9.17;;;;;;;;;;5010146;28;20652;-70
2022/05/03 01:46:27;;;;;;;10.63;8.60;;;;;;;;;;5004056;28;20175;-70
2022/05/03 01:51:58;;;;;;;12.77;9.60;;;;;;;;;;5010023;28;20242;-69
2022/05/03 01:54:37;;;;;;;12.93;9.97;;;;;;;;;;5004044;28;20277;-71
2022/05/03 01:57:17;;;;;;;14.83;11.60;;;;;;;;;;5002155;28;20178;-71
2022/05/03 02:00:11;;;;;;;14.63;10.73;;;;;;;;;;5004943;28;20267;-68
2022/05/03 02:02:39;;;;;;;11.23;8.83;;;;;;;;;;4996971;28;20665;-70
2022/05/03 02:05:06;;;;;;;12.17;9.67;;;;;;;;;;5008436;28;20186;-70
2022/05/03 02:07:43;;;;;;;13.27;11.23;;;;;;;;;;5007011;28;20266;-70
2022/05/03 02:10:27;;;;;;;12.97;10.27;;;;;;;;;;5009075;28;20257;-70
2022/05/03 02:12:57;;;;;;;14.20;10.83;;;;;;;;;;5005029;28;20214;-70
2022/05/03 02:15:31;;;;;;;14.47;11.00;;;;;;;;;;5001317;28;20184;-70
2022/05/03 02:18:10;;;;;;;15.27;11.53;;;;;;;;;;5005486;28;20201;-70
2022/05/03 02:20:38;;;;;;;17.83;12.67;;;;;;;;;;5006581;28;20198;-70
2022/05/03 02:23:03;;;;;;;21.27;14.10;;;;;;;;;;5009341;28;20178;-70
2022/05/03 02:25:29;;;;;;;16.50;13.13;;;;;;;;;;5008180;28;20180;-70
2022/05/03 02:28:13;;;;;;;19.10;14.27;;;;;;;;;;5008870;28;20653;-70
2022/05/03 02:30:39;;;;;;;19.80;14.43;;;;;;;;;;5006251;28;20214;-68
2022/05/03 02:33:04;;;;;;;17.93;14.00;;;;;;;;;;5000560;28;20207;-71
2022/05/03 02:35:34;;;;;;;20.03;14.93;;;;;;;;;;5001454;28;20287;-69
2022/05/03 02:38:04;;;;;;;21.47;15.07;;;;;;;;;;5009870;28;20190;-70
2022/05/03 02:40:29;;;;;;;19.77;14.67;;;;;;;;;;5007404;28;20221;-70
2022/05/03 02:42:54;;;;;;;22.60;15.90;;;;;;;;;;5001470;28;20649;-70
2022/05/03 02:45:20;;;;;;;20.87;15.67;;;;;;;;;;5011001;28;20179;-70
2022/05/03 02:48:03;;;;;;;24.10;17.23;;;;;;;;;;5004472;28;20187;-70
2022/05/03 02:50:49;;;;;;;22.13;16.57;;;;;;;;;;5007038;28;20211;-71
2022/05/03 02:53:14;;;;;;;22.43;16.53;;;;;;;;;;4992165;28;20204;-71
2022/05/03 02:55:53;;;;;;;27.92;18.13;;;;;;;;;;5003957;28;20186;-70
2022/05/03 02:58:24;;;;;;;23.20;17.80;;;;;;;;;;5007709;28;20182;-70
2022/05/03 03:03:56;;;;;;;24.90;18.50;;;;;;;;;;5006820;28;20190;-69
2022/05/03 03:06:22;;;;;;;28.90;19.50;;;;;;;;;;5003845;28;20186;-69
2022/05/03 03:08:49;;;;;;;25.37;18.70;;;;;;;;;;5007624;28;20286;-69
2022/05/03 03:11:40;;;;;;;26.37;20.43;;;;;;;;;;5007152;28;20249;-70
2022/05/03 03:14:08;;;;;;;27.77;20.07;;;;;;;;;;5006346;28;20267;-70
2022/05/03 03:16:34;;;;;;;29.80;21.97;;;;;;;;;;5005178;28;20187;-70
2022/05/03 03:19:07;;;;;;;27.97;20.70;;;;;;;;;;5006548;28;20183;-70
2022/05/03 03:21:35;;;;;;;27.00;19.93;;;;;;;;;;5008521;28;20195;-70
2022/05/03 03:24:01;;;;;;;34.40;22.53;;;;;;;;;;5003884;28;20566;-71
2022/05/03 03:26:29;;;;;;;30.73;21.83;;;;;;;;;;5007705;28;20176;-70
2022/05/03 03:28:55;;;;;;;31.70;21.67;;;;;;;;;;5002615;28;20565;-71
2022/05/03 03:31:21;;;;;;;35.67;23.10;;;;;;;;;;5007795;28;20202;-70
2022/05/03 03:33:47;;;;;;;36.13;23.57;;;;;;;;;;5013698;28;20179;-68
2022/05/03 03:36:13;;;;;;;31.03;22.17;;;;;;;;;;5011583;28;20611;-69
2022/05/03 03:38:40;;;;;;;36.00;22.87;;;;;;;;;;5011049;28;20187;-70
2022/05/03 03:41:06;;;;;;;35.30;23.90;;;;;;;;;;5012006;28;20203;-70
2022/05/03 03:43:31;;;;;;;30.27;19.90;;;;;;;;;;5012555;28;20202;-70
2022/05/03 03:45:56;;;;;;;33.50;22.80;;;;;;;;;;5013935;28;20191;-71
2022/05/03 03:48:21;;;;;;;32.37;22.47;;;;;;;;;;5008841;28;20238;-68
2022/05/03 03:50:47;;;;;;;29.77;21.63;;;;;;;;;;5012730;28;20590;-68
2022/05/03 03:53:14;;;;;;;30.30;21.03;;;;;;;;;;5010858;28;20175;-70
2022/05/03 03:55:39;;;;;;;33.93;22.73;;;;;;;;;;5009665;28;20549;-71
2022/05/03 03:58:04;;;;;;;32.20;22.83;;;;;;;;;;5007327;28;20179;-70
2022/05/03 04:00:29;;;;;;;32.10;20.23;;;;;;;;;;5010526;28;20210;-69
2022/05/03 04:02:56;;;;;;;31.10;22.23;;;;;;;;;;5010498;28;20229;-70
2022/05/03 04:05:22;;;;;;;32.83;22.07;;;;;;;;;;5010219;28;20194;-70
2022/05/03 04:07:48;;;;;;;32.47;21.73;;;;;;;;;;5011902;28;20183;-70
2022/05/03 04:10:13;;;;;;;34.07;22.30;;;;;;;;;;5005032;28;20676;-70
2022/05/03 04:12:39;;;;;;;30.90;22.60;;;;;;;;;;5001029;28;20577;-70
2022/05/03 04:15:05;;;;;;;31.83;20.93;;;;;;;;;;5005480;28;20182;-70
2022/05/03 04:17:30;;;;;;;34.47;23.13;;;;;;;;;;5011022;28;20293;-70
2022/05/03 04:19:55;;;;;;;31.90;21.97;;;;;;;;;;5012518;28;20257;-71
2022/05/03 04:22:23;;;;;;;33.40;22.60;;;;;;;;;;5007278;28;20302;-69
2022/05/03 04:24:49;;;;;;;32.43;22.87;;;;;;;;;;5008161;28;20191;-69
2022/05/03 04:27:15;;;;;;;37.60;24.13;;;;;;;;;;5011500;28;20183;-69
2022/05/03 04:29:40;;;;;;;32.40;23.00;;;;;;;;;;5005010;28;20245;-69
2022/05/03 04:32:05;;;;;;;35.67;24.53;;;;;;;;;;5010339;28;20214;-69
2022/05/03 04:34:30;;;;;;;35.80;24.17;;;;;;;;;;5001892;28;20175;-69
2022/05/03 04:36:57;;;;;;;39.53;24.60;;;;;;;;;;5011043;28;20281;-69
2022/05/03 04:39:22;;;;;;;34.87;24.13;;;;;;;;;;5005961;28;20167;-69
2022/05/03 04:41:47;;;;;;;38.63;24.73;;;;;;;;;;5005155;28;20261;-69
2022/05/03 04:44:13;;;;;;;39.30;25.23;;;;;;;;;;5011314;28;20564;-69
2022/05/03 04:46:38;;;;;;;43.23;26.43;;;;;;;;;;5005285;28;20652;-70
2022/05/03 04:49:03;;;;;;;37.60;25.20;;;;;;;;;;5010427;28;20198;-69
2022/05/03 04:51:29;;;;;;;39.87;26.53;;;;;;;;;;5001345;28;20203;-69
2022/05/03 04:53:55;;;;;;;38.33;25.80;;;;;;;;;;5008397;28;20183;-70
2022/05/03 04:56:21;;;;;;;39.73;26.03;;;;;;;;;;5008457;28;20178;-70
2022/05/03 04:58:50;;;;;;;36.03;25.13;;;;;;;;;;5008009;28;20479;-70
2022/05/03 05:01:15;;;;;;;40.57;26.97;;;;;;;;;;5001525;28;20218;-68
2022/05/03 05:03:41;;;;;;;43.23;26.37;;;;;;;;;;5010161;28;20182;-69
2022/05/03 05:06:06;;;;;;;42.97;27.97;;;;;;;;;;5006583;28;20187;-70
2022/05/03 05:08:31;;;;;;;40.17;28.50;;;;;;;;;;5007620;28;20202;-71
2022/05/03 05:10:56;;;;;;;40.17;25.80;;;;;;;;;;5012583;28;20203;-70
2022/05/03 05:13:22;;;;;;;37.33;24.93;;;;;;;;;;5008679;28;20197;-70
2022/05/03 05:15:49;;;;;;;37.47;25.93;;;;;;;;;;5012873;28;20229;-70
2022/05/03 05:18:16;;;;;;;40.30;25.93;;;;;;;;;;5010966;28;20175;-70
2022/05/03 05:20:41;;;;;;;34.03;25.53;;;;;;;;;;5015926;28;20195;-70
2022/05/03 05:23:06;;;;;;;38.47;25.50;;;;;;;;;;5013288;28;20190;-69
2022/05/03 05:25:31;;;;;;;34.17;24.37;;;;;;;;;;5008488;28;20179;-71
2022/05/03 05:27:56;;;;;;;32.30;23.63;;;;;;;;;;5012230;28;20186;-71
2022/05/03 05:30:22;;;;;;;34.67;24.13;;;;;;;;;;5005970;28;20525;-69
2022/05/03 05:32:47;;;;;;;34.43;24.77;;;;;;;;;;5008612;28;20672;-71
2022/05/03 05:35:12;;;;;;;32.13;24.80;;;;;;;;;;5008086;28;20227;-70
2022/05/03 05:37:37;;;;;;;32.67;24.70;;;;;;;;;;5010554;28;20179;-68
2022/05/03 05:40:03;;;;;;;34.00;24.23;;;;;;;;;;5008359;28;20213;-69
2022/05/03 05:42:28;;;;;;;37.27;24.07;;;;;;;;;;5005020;28;20183;-71
2022/05/03 05:44:53;;;;;;;30.10;23.30;;;;;;;;;;5012453;28;20178;-71
2022/05/03 05:47:18;;;;;;;28.53;21.87;;;;;;;;;;5004694;28;20179;-70
2022/05/03 05:49:44;;;;;;;33.23;24.00;;;;;;;;;;5009594;28;20186;-70
2022/05/03 05:54:53;;;;;;;29.80;20.50;;;;;;;;;;5011352;28;20178;-71
2022/05/03 05:57:19;;;;;;;28.23;21.83;;;;;;;;;;5010673;28;20171;-71
2022/05/03 05:59:44;;;;;;;28.50;20.30;;;;;;;;;;5006239;28;20171;-71
2022/05/03 06:02:10;;;;;;;29.97;21.67;;;;;;;;;;5008908;28;20702;-71
2022/05/03 06:04:35;;;;;;;27.90;19.83;;;;;;;;;;5009988;28;20171;-70
2022/05/03 06:07:00;;;;;;;23.67;19.43;;;;;;;;;;5011359;28;20174;-70
2022/05/03 06:09:26;;;;;;;30.03;21.07;;;;;;;;;;5010002;28;20503;-71
2022/05/03 06:11:51;;;;;;;27.17;20.03;;;;;;;;;;5011596;28;20701;-71
2022/05/03 06:14:16;;;;;;;23.27;19.00;;;;;;;;;;5014257;28;20680;-71
2022/05/03 06:17:07;;;;;;;22.27;17.43;;;;;;;;;;5026277;28;20167;-71
2022/05/03 06:19:33;;;;;;;22.53;17.73;;;;;;;;;;4999884;28;20179;-71
2022/05/03 06:21:58;;;;;;;24.57;18.03;;;;;;;;;;5002931;28;20198;-71
2022/05/03 06:24:23;;;;;;;21.20;17.57;;;;;;;;;;5017298;28;20174;-71
2022/05/03 06:26:48;;;;;;;22.75;17.63;;;;;;;;;;5016707;28;20524;-71
2022/05/03 06:29:14;;;;;;;22.38;17.55;;;;;;;;;;5009054;28;20178;-70
2022/05/03 06:31:39;;;;;;;19.38;16.95;;;;;;;;;;5011790;28;20203;-70
2022/05/03 06:34:05;;;;;;;21.48;16.05;;;;;;;;;;5005672;28;20535;-70
2022/05/03 06:36:30;;;;;;;19.75;16.20;;;;;;;;;;5011816;28;20321;-70
2022/05/03 06:38:56;;;;;;;21.53;16.93;;;;;;;;;;5011185;28;20258;-69
2022/05/03 06:41:21;;;;;;;19.33;16.42;;;;;;;;;;5005390;28;20925;-70
2022/05/03 06:43:46;;;;;;;20.35;18.00;;;;;;;;;;5011327;28;20264;-70
2022/05/03 06:46:11;;;;;;;23.25;19.85;;;;;;;;;;5004292;28;20265;-70
2022/05/03 06:48:37;;;;;;;24.00;19.33;;;;;;;;;;5010806;28;20198;-70
2022/05/03 06:51:02;;;;;;;22.65;20.17;;;;;;;;;;5009656;28;20206;-70
2022/05/03 06:53:27;;;;;;;22.75;18.00;;;;;;;;;;5007891;28;20466;-71
2022/05/03 06:55:53;;;;;;;22.98;18.45;;;;;;;;;;5009908;28;20182;-71
2022/05/03 06:58:18;;;;;;;22.05;16.85;;;;;;;;;;5001560;28;20191;-71
2022/05/03 07:00:43;;;;;;;21.03;16.80;;;;;;;;;;5000545;28;20253;-71
2022/05/03 07:03:09;;;;;;;24.85;17.05;;;;;;;;;;4998295;28;20438;-71
2022/05/03 07:05:34;;;;;;;22.10;19.02;;;;;;;;;;5011121;28;20183;-70
2022/05/03 07:07:59;;;;;;;21.88;18.50;;;;;;;;;;5000354;28;20266;-70
2022/05/03 07:10:25;;;;;;;21.52;18.25;;;;;;;;;;5010676;28;20198;-70
2022/05/03 07:12:50;;;;;;;19.00;16.85;;;;;;;;;;5009131;28;20194;-69
2022/05/03 07:15:15;;;;;;;20.05;17.58;;;;;;;;;;5007562;28;20183;-71
2022/05/03 07:23:11;;;;;;;25.10;20.95;;;;;;;;;;5008651;28;20189;-71
2022/05/03 07:25:36;;;;;;;27.10;22.63;;;;;;;;;;5013705;28;20230;-71
2022/05/03 07:28:01;;;;;;;24.50;21.30;;;;;;;;;;5010921;28;20182;-72
2022/05/03 07:30:26;;;;;;;24.87;21.53;;;;;;;;;;5011187;28;20272;-71
2022/05/03 07:32:51;;;;;;;25.60;21.27;;;;;;;;;;5011559;28;20471;-70
2022/05/03 07:35:17;;;;;;;24.48;20.92;;;;;;;;;;5007165;28;20187;-70
2022/05/03 07:37:42;;;;;;;24.67;20.58;;;;;;;;;;4994969;28;20186;-70
2022/05/03 07:40:08;;;;;;;25.60;21.45;;;;;;;;;;4995036;28;20186;-70
2022/05/03 07:42:33;;;;;;;22.30;19.90;;;;;;;;;;4999309;28;20603;-68
2022/05/03 07:44:58;;;;;;;24.85;20.80;;;;;;;;;;5008706;28;20183;-68
2022/05/03 07:47:24;;;;;;;21.67;19.17;;;;;;;;;;5011216;28;20744;-71
2022/05/03 07:49:49;;;;;;;23.10;20.08;;;;;;;;;;5007790;28;20515;-70
2022/05/03 07:52:14;;;;;;;24.35;21.77;;;;;;;;;;5011892;28;20214;-70
2022/05/03 07:54:40;;;;;;;23.45;19.00;;;;;;;;;;5010007;28;20206;-68
2022/05/03 07:57:06;;;;;;;21.88;19.58;;;;;;;;;;5009510;28;20218;-69
2022/05/03 07:59:31;;;;;;;21.20;19.00;;;;;;;;;;5008584;28;20202;-68
2022/05/03 08:01:56;;;;;;;20.60;18.40;;;;;;;;;;5010716;28;20215;-68
2022/05/03 08:04:21;;;;;;;21.40;18.83;;;;;;;;;;5009133;28;21413;-70
2022/05/03 08:06:47;;;;;;;23.03;18.97;;;;;;;;;;5007646;28;20405;-68
2022/05/03 08:09:12;;;;;;;22.98;20.30;;;;;;;;;;5009983;28;20968;-69
2022/05/03 08:11:37;;;;;;;22.45;20.05;;;;;;;;;;5009968;28;20708;-69
2022/05/03 08:14:03;;;;;;;21.90;18.52;;;;;;;;;;5012654;28;20211;-69
2022/05/03 08:16:30;;;;;;;20.58;18.05;;;;;;;;;;5009286;28;20171;-70
2022/05/03 08:18:56;;;;;;;19.95;17.83;;;;;;;;;;5008273;28;20576;-70
2022/05/03 08:21:21;;;;;;;21.60;19.33;;;;;;;;;;5011148;28;20203;-69
2022/05/03 08:23:46;;;;;;;21.95;19.70;;;;;;;;;;5008974;28;20281;-70
2022/05/03 08:26:11;;;;;;;20.33;18.23;;;;;;;;;;5011336;28;20230;-69
2022/05/03 08:28:36;;;;;;;19.80;16.90;;;;;;;;;;5009743;28;20225;-69
2022/05/03 08:31:03;;;;;;;19.13;17.23;;;;;;;;;;5010697;28;20211;-70
2022/05/03 08:33:28;;;;;;;18.75;16.52;;;;;;;;;;5010590;28;20443;-69
2022/05/03 08:35:53;;;;;;;17.38;15.57;;;;;;;;;;5009537;28;20215;-70
2022/05/03 08:43:46;;;;;;;18.38;16.48;;;;;;;;;;5007720;28;20241;-70
2022/05/03 08:46:12;;;;;;;18.53;16.53;;;;;;;;;;5010643;28;20183;-69
2022/05/03 08:48:40;;;;;;;15.25;13.57;;;;;;;;;;5011662;28;20918;-70
2022/05/03 08:51:06;;;;;;;12.85;11.57;;;;;;;;;;5007495;28;20199;-70
2022/05/03 08:53:32;;;;;;;13.57;12.18;;;;;;;;;;5011407;28;20641;-69
2022/05/03 08:55:58;;;;;;;13.88;12.48;;;;;;;;;;5008768;28;20198;-69
2022/05/03 08:58:23;;;;;;;13.37;12.07;;;;;;;;;;5009045;28;20175;-70
2022/05/03 09:00:49;;;;;;;15.60;13.60;;;;;;;;;;5010722;28;20432;-70
2022/05/03 09:03:15;;;;;;;16.25;13.80;;;;;;;;;;5006614;28;20178;-70
2022/05/03 09:05:40;;;;;;;16.17;14.48;;;;;;;;;;5010768;28;20182;-69
2022/05/03 09:08:09;;;;;;;17.83;16.08;;;;;;;;;;5010045;28;20179;-69
2022/05/03 09:10:37;;;;;;;17.13;15.32;;;;;;;;;;5013284;28;20249;-69
2022/05/03 09:13:13;;;;;;;18.63;16.17;;;;;;;;;;5010450;28;20199;-69
2022/05/03 09:15:38;;;;;;;20.38;16.75;;;;;;;;;;5012943;28;20321;-69
2022/05/03 09:18:04;;;;;;;18.27;16.25;;;;;;;;;;5011612;28;20261;-70
2022/05/03 09:26:15;;;;;;;19.13;17.15;;;;;;;;;;5012571;28;20290;-70
2022/05/03 09:29:05;;;;;;;18.15;16.25;;;;;;;;;;5010928;28;20262;-69
2022/05/03 09:31:36;;;;;;;18.05;16.23;;;;;;;;;;5001761;28;20293;-70
2022/05/03 09:34:03;;;;;;;20.27;18.13;;;;;;;;;;5010706;28;20263;-69
2022/05/03 09:36:39;;;;;;;18.80;16.80;;;;;;;;;;5010625;28;20179;-70
2022/05/03 09:39:04;;;;;;;21.42;18.77;;;;;;;;;;5004903;28;20665;-70
2022/05/03 09:41:30;;;;;;;22.23;19.87;;;;;;;;;;5010403;28;20209;-69
2022/05/03 09:44:05;;;;;;;23.05;18.90;;;;;;;;;;5006323;28;20421;-69
2022/05/03 09:46:52;;;;;;;19.75;17.17;;;;;;;;;;5008317;28;20571;-70
2022/05/03 09:49:19;;;;;;;20.30;18.25;;;;;;;;;;5010809;28;20191;-69
2022/05/03 09:51:44;;;;;;;21.83;17.30;;;;;;;;;;5010392;28;20264;-69
2022/05/03 09:54:10;;;;;;;21.02;17.40;;;;;;;;;;5011265;28;20209;-70
2022/05/03 09:56:36;;;;;;;19.00;17.00;;;;;;;;;;5011963;28;20233;-69
2022/05/03 09:59:07;;;;;;;18.65;16.70;;;;;;;;;;5009607;28;20198;-69
2022/05/03 10:01:33;;;;;;;17.60;15.82;;;;;;;;;;5005822;28;20211;-69
2022/05/03 10:03:59;;;;;;;17.25;15.52;;;;;;;;;;5005995;28;20179;-69
2022/05/03 10:06:26;;;;;;;18.63;15.40;;;;;;;;;;5010706;28;20194;-69
2022/05/03 10:08:51;;;;;;;17.65;15.93;;;;;;;;;;5007029;28;20171;-69
2022/05/03 10:11:17;;;;;;;18.20;16.40;;;;;;;;;;5011044;28;20202;-69
2022/05/03 10:13:42;;;;;;;17.77;15.98;;;;;;;;;;5008855;28;20186;-69
2022/05/03 10:21:38;;;;;;;19.98;17.90;;;;;;;;;;5009878;28;20279;-68
2022/05/03 10:24:06;;;;;;;18.00;16.20;;;;;;;;;;5011473;28;20182;-69
2022/05/03 10:26:50;;;;;;;19.17;17.35;;;;;;;;;;5011087;28;20635;-69
2022/05/03 10:29:15;;;;;;;19.17;17.25;;;;;;;;;;5005187;28;20249;-69
2022/05/03 10:31:55;;;;;;;19.03;17.13;;;;;;;;;;5007944;28;20588;-69
2022/05/03 10:34:42;;;;;;;19.20;17.00;;;;;;;;;;5010406;28;20404;-69
2022/05/03 10:37:35;;;;;;;18.95;17.15;;;;;;;;;;5006628;28;20209;-69
2022/05/03 10:40:12;;;;;;;20.00;18.13;;;;;;;;;;5006241;28;20514;-68
2022/05/03 10:42:37;;;;;;;22.63;20.30;;;;;;;;;;5017834;28;20236;-69
2022/05/03 10:45:03;;;;;;;21.20;19.10;;;;;;;;;;5016725;28;20182;-69
2022/05/03 10:47:43;;;;;;;22.20;19.98;;;;;;;;;;4998473;28;20179;-69
2022/05/03 10:50:12;;;;;;;21.77;19.55;;;;;;;;;;5015706;28;20554;-69
2022/05/03 10:52:37;;;;;;;21.90;19.58;;;;;;;;;;5017645;28;20284;-69
2022/05/03 10:55:09;;;;;;;19.27;17.08;;;;;;;;;;5016086;28;20221;-69
2022/05/03 10:57:53;;;;;;;18.80;16.83;;;;;;;;;;5013627;28;20194;-69
2022/05/03 11:00:38;;;;;;;18.75;16.80;;;;;;;;;;5012572;28;20261;-69
2022/05/03 11:03:19;;;;;;;18.98;17.15;;;;;;;;;;5020878;28;20186;-69
2022/05/03 11:05:44;;;;;;;19.48;17.55;;;;;;;;;;5012110;28;20178;-69
2022/05/03 11:08:13;;;;;;;19.03;17.10;;;;;;;;;;5016267;28;20619;-69
2022/05/03 11:10:41;;;;;;;20.85;18.75;;;;;;;;;;5014884;28;20198;-69
2022/05/03 11:13:25;;;;;;;21.50;19.23;;;;;;;;;;5015646;28;20209;-69
2022/05/03 11:16:13;;;;;;;22.00;19.80;;;;;;;;;;5015117;28;20174;-68
2022/05/03 11:18:38;;;;;;;25.63;22.85;;;;;;;;;;5005489;28;20724;-69
2022/05/03 11:21:16;;;;;;;23.53;21.03;;;;;;;;;;5015768;28;20286;-68
2022/05/03 11:23:51;;;;;;;25.05;20.67;;;;;;;;;;5014569;28;20431;-68
2022/05/03 11:26:17;;;;;;;24.30;21.75;;;;;;;;;;5015995;28;20180;-69
2022/05/03 11:28:44;;;;;;;26.10;22.25;;;;;;;;;;5015246;28;20190;-68
2022/05/03 11:31:09;;;;;;;27.52;23.58;;;;;;;;;;5015992;28;20206;-69
2022/05/03 11:33:48;;;;;;;28.33;22.80;;;;;;;;;;5016294;28;20205;-69
2022/05/03 11:36:13;;;;;;;32.90;25.80;;;;;;;;;;5015357;28;20556;-69
2022/05/03 11:38:38;;;;;;;35.40;26.60;;;;;;;;;;5015671;28;20179;-68
2022/05/03 11:41:05;;;;;;;35.27;25.57;;;;;;;;;;5016610;28;20735;-68
2022/05/03 11:43:33;;;;;;;34.50;26.65;;;;;;;;;;5016983;28;20790;-68
2022/05/03 11:45:58;;;;;;;28.55;23.92;;;;;;;;;;5013579;28;20237;-68
2022/05/03 11:48:23;;;;;;;28.05;22.13;;;;;;;;;;5010900;28;20190;-68
2022/05/03 11:56:23;;;;;;;23.48;18.40;;;;;;;;;;5009836;28;20240;-68
2022/05/03 11:58:48;;;;;;;23.23;17.15;;;;;;;;;;5009140;28;20194;-68
2022/05/03 12:01:15;;;;;;;20.70;16.48;;;;;;;;;;5012640;28;20214;-68
2022/05/03 12:03:59;;;;;;;22.58;17.60;;;;;;;;;;5008185;28;20768;-68
2022/05/03 12:06:32;;;;;;;18.00;15.55;;;;;;;;;;5013575;28;20178;-69
2022/05/03 12:08:57;;;;;;;19.33;14.75;;;;;;;;;;5011064;28;20167;-69
2022/05/03 12:11:24;;;;;;;19.05;14.43;;;;;;;;;;5010976;28;20690;-69
2022/05/03 12:13:49;;;;;;;17.02;12.95;;;;;;;;;;5007381;28;20178;-68
2022/05/03 12:16:19;;;;;;;14.98;12.55;;;;;;;;;;5010156;28;20171;-69
2022/05/03 12:18:49;;;;;;;14.55;11.48;;;;;;;;;;5011628;28;20604;-68
2022/05/03 12:21:14;;;;;;;14.00;11.35;;;;;;;;;;5006967;28;20202;-68
2022/05/03 12:23:41;;;;;;;14.07;11.20;;;;;;;;;;5013385;28;20591;-68
2022/05/03 12:26:12;;;;;;;12.07;9.98;;;;;;;;;;5005717;28;20432;-69
2022/05/03 12:28:41;;;;;;;13.07;10.38;;;;;;;;;;5006236;28;20253;-69
2022/05/03 12:31:10;;;;;;;16.30;11.55;;;;;;;;;;5012995;28;20195;-69
2022/05/03 12:33:44;;;;;;;13.35;9.52;;;;;;;;;;5011571;28;20198;-69
2022/05/03 12:36:09;;;;;;;13.18;10.05;;;;;;;;;;5012587;28;20178;-69
2022/05/03 12:38:47;;;;;;;13.93;10.32;;;;;;;;;;5010612;28;20194;-69
2022/05/03 12:41:28;;;;;;;16.65;11.48;;;;;;;;;;5006548;28;21188;-68
2022/05/03 12:44:03;;;;;;;14.65;11.60;;;;;;;;;;5006571;28;20178;-69
2022/05/03 12:46:29;;;;;;;15.13;11.05;;;;;;;;;;5008645;28;20178;-69
2022/05/03 12:48:54;;;;;;;13.90;10.95;;;;;;;;;;5012085;28;20179;-69
2022/05/03 12:51:20;;;;;;;16.23;12.10;;;;;;;;;;5002721;28;20269;-68
2022/05/03 12:53:46;;;;;;;15.52;12.13;;;;;;;;;;5009670;28;20205;-68
2022/05/03 12:58:58;;;;;;;14.68;11.85;;;;;;;;;;5009022;28;20197;-68
2022/05/03 13:01:23;;;;;;;16.65;11.98;;;;;;;;;;5009720;28;20668;-68
2022/05/03 13:03:48;;;;;;;13.77;9.57;;;;;;;;;;5007942;28;20270;-69
2022/05/03 13:06:13;;;;;;;12.63;11.18;;;;;;;;;;5011009;28;20432;-69
2022/05/03 13:08:38;;;;;;;12.43;10.00;;;;;;;;;;5009268;28;20657;-68
2022/05/03 13:11:04;;;;;;;12.60;10.02;;;;;;;;;;5006948;28;20456;-69
2022/05/03 13:13:29;;;;;;;15.10;11.05;;;;;;;;;;5007733;28;20234;-68
2022/05/03 13:15:54;;;;;;;14.93;10.27;;;;;;;;;;5008909;28;20190;-69
2022/05/03 13:18:19;;;;;;;11.70;9.13;;;;;;;;;;5009096;28;20198;-68
2022/05/03 13:20:44;;;;;;;17.40;11.17;;;;;;;;;;5009281;28;20455;-69
2022/05/03 13:23:10;;;;;;;14.27;10.50;;;;;;;;;;5008900;28;20433;-69
2022/05/03 13:25:35;;;;;;;11.38;9.48;;;;;;;;;;5009838;28;20463;-69
2022/05/03 13:28:01;;;;;;;16.23;10.15;;;;;;;;;;5007645;28;20187;-68
2022/05/03 13:30:26;;;;;;;13.77;10.25;;;;;;;;;;5006843;28;20198;-68
2022/05/03 13:32:52;;;;;;;12.20;9.23;;;;;;;;;;5009598;28;20214;-68
2022/05/03 13:40:28;;;;;;;13.18;8.50;;;;;;;;;;5009519;28;20660;-69
2022/05/03 13:40:46;;;;;;;12.50;9.23;;;;;;;;;;5009681;28;20256;-68
2022/05/03 13:43:11;;;;;;;11.65;8.27;;;;;;;;;;5010574;28;20194;-68
2022/05/03 13:45:36;;;;;;;15.03;9.67;;;;;;;;;;5007940;28;20191;-68
2022/05/03 13:48:01;;;;;;;17.70;9.07;;;;;;;;;;5008251;28;20756;-68
2022/05/03 13:50:27;;;;;;;13.02;9.13;;;;;;;;;;4994333;28;20455;-68
2022/05/03 13:52:52;;;;;;;13.87;8.83;;;;;;;;;;4997496;28;20225;-68
2022/05/03 13:55:17;;;;;;;12.65;7.93;;;;;;;;;;5011151;28;20417;-69
2022/05/03 13:57:42;;;;;;;9.70;7.30;;;;;;;;;;5008867;28;20233;-69
2022/05/03 14:00:10;;;;;;;11.50;7.60;;;;;;;;;;5010382;28;20567;-69
2022/05/03 14:02:36;;;;;;;11.23;7.53;;;;;;;;;;5012545;28;20442;-68
2022/05/03 14:05:01;;;;;;;11.50;8.15;;;;;;;;;;5008002;28;20182;-68
2022/05/03 14:07:26;;;;;;;11.85;7.40;;;;;;;;;;5011112;28;20186;-68
2022/05/03 14:09:51;;;;;;;13.10;7.30;;;;;;;;;;5011873;28;20237;-68
2022/05/03 14:12:16;;;;;;;10.68;7.10;;;;;;;;;;5018618;28;20567;-69
2022/05/03 14:14:41;;;;;;;12.30;7.43;;;;;;;;;;5009303;28;20648;-69
2022/05/03 14:17:07;;;;;;;10.63;6.90;;;;;;;;;;5008236;28;20551;-69
2022/05/03 14:19:32;;;;;;;13.27;7.07;;;;;;;;;;5010165;28;20404;-68
2022/05/03 14:21:57;;;;;;;12.95;6.90;;;;;;;;;;5009597;28;20215;-70
2022/05/03 14:24:23;;;;;;;14.15;7.10;;;;;;;;;;5009313;28;20183;-69
2022/05/03 14:26:49;;;;;;;10.35;6.45;;;;;;;;;;5010081;28;20190;-68
2022/05/03 14:29:14;;;;;;;10.25;6.30;;;;;;;;;;5008541;28;20818;-68
2022/05/03 14:31:39;;;;;;;9.80;6.87;;;;;;;;;;5006755;28;20210;-68
2022/05/03 14:34:05;;;;;;;8.88;6.05;;;;;;;;;;5009273;28;20491;-68
2022/05/03 14:36:32;;;;;;;12.05;7.38;;;;;;;;;;5006257;28;20183;-69
2022/05/03 14:38:57;;;;;;;10.35;7.00;;;;;;;;;;5004464;28;20194;-68
2022/05/03 14:41:22;;;;;;;11.88;6.70;;;;;;;;;;5008927;28;20186;-68
2022/05/03 14:43:47;;;;;;;9.15;7.00;;;;;;;;;;5007839;28;20230;-68
2022/05/03 14:46:12;;;;;;;11.20;8.60;;;;;;;;;;5007434;28;20180;-68
2022/05/03 14:48:38;;;;;;;8.55;6.63;;;;;;;;;;5007260;28;21118;-68
2022/05/03 14:51:03;;;;;;;11.82;7.18;;;;;;;;;;5010762;28;20637;-69
2022/05/03 14:53:29;;;;;;;11.88;7.22;;;;;;;;;;5001705;28;20744;-69
2022/05/03 15:04:05;;;;;;;11.30;7.88;;;;;;;;;;5010640;28;20178;-69
2022/05/03 15:06:33;;;;;;;12.55;6.95;;;;;;;;;;5011024;28;20175;-69
2022/05/03 15:08:58;;;;;;;11.43;6.57;;;;;;;;;;5009662;28;20258;-69
2022/05/03 15:11:23;;;;;;;14.50;7.10;;;;;;;;;;5010523;28;20285;-69
2022/05/03 15:13:48;;;;;;;11.05;6.90;;;;;;;;;;5008850;28;20818;-69
2022/05/03 15:16:14;;;;;;;9.27;6.22;;;;;;;;;;5010773;28;20637;-69
2022/05/03 15:18:40;;;;;;;9.50;5.57;;;;;;;;;;5009534;28;20210;-68
2022/05/03 15:21:06;;;;;;;8.57;5.78;;;;;;;;;;5009660;28;20341;-68